Landa, North Dakota
Current Conditions -  °F | °C
As of 6:58 PM on Tuesday 27 Jan 2015 (Local Time) from KMIB Reporting Station
Clear Clear  
Wind Chill: 34°   Ceiling: Unl
Heat Index: 34°   Visibility: 10mi
Dew Point: 34°   Wind: 3mph
Humidity: 100%   Direction: 270°W
Pressure: 29.77"   Gusts: NA
Location:  48.9505°N, 100.734°W
Report Text: KMIB 280058Z AUTO 27003KT 10SM CLR 01/01 A2977 RMK AO2 SLP107 T00130013 $
Loading
Personal Weather Stations






























Interactive Weather Map New forecast layout! Learn more

10-Day Weather Forecast

Advertisements
Track Severe Weather on mobile